sensor_id;sensor_type;location;lat;lon;timestamp;pressure;altitude;pressure_sealevel;temperature;humidity
86480;BME280;77130;49.212;9.056;2024-03-22T00:01:10;99856.28;;;8.15;65.70
86480;BME280;77130;49.212;9.056;2024-03-22T00:03:36;99857.47;;;8.11;66.17
86480;BME280;77130;49.212;9.056;2024-03-22T00:06:02;99848.03;;;7.85;66.86
86480;BME280;77130;49.212;9.056;2024-03-22T00:08:28;99849.69;;;7.74;66.23
86480;BME280;77130;49.212;9.056;2024-03-22T00:10:55;99852.59;;;7.83;66.18
86480;BME280;77130;49.212;9.056;2024-03-22T00:13:21;99838.00;;;7.88;65.36
86480;BME280;77130;49.212;9.056;2024-03-22T00:15:47;99839.44;;;7.81;64.74
86480;BME280;77130;49.212;9.056;2024-03-22T00:18:12;99835.94;;;7.69;65.76
86480;BME280;77130;49.212;9.056;2024-03-22T00:20:38;99830.00;;;7.66;66.29
86480;BME280;77130;49.212;9.056;2024-03-22T00:23:04;99818.53;;;7.54;67.39
86480;BME280;77130;49.212;9.056;2024-03-22T00:25:30;99819.69;;;7.39;68.07
86480;BME280;77130;49.212;9.056;2024-03-22T00:27:56;99813.53;;;7.38;68.74
86480;BME280;77130;49.212;9.056;2024-03-22T00:30:21;99817.56;;;7.55;67.31
86480;BME280;77130;49.212;9.056;2024-03-22T00:32:47;99811.69;;;7.63;66.63
86480;BME280;77130;49.212;9.056;2024-03-22T00:35:13;99815.16;;;7.52;66.56
86480;BME280;77130;49.212;9.056;2024-03-22T00:37:39;99813.72;;;7.24;68.00
86480;BME280;77130;49.212;9.056;2024-03-22T00:40:05;99818.03;;;7.14;68.43
86480;BME280;77130;49.212;9.056;2024-03-22T00:42:31;99806.03;;;7.21;68.15
86480;BME280;77130;49.212;9.056;2024-03-22T00:44:57;99800.34;;;7.25;67.82
86480;BME280;77130;49.212;9.056;2024-03-22T00:47:23;99798.56;;;7.26;66.54
86480;BME280;77130;49.212;9.056;2024-03-22T00:49:49;99799.53;;;7.25;65.50
86480;BME280;77130;49.212;9.056;2024-03-22T00:52:15;99804.16;;;7.10;68.67
86480;BME280;77130;49.212;9.056;2024-03-22T00:54:40;99797.84;;;7.00;67.74
86480;BME280;77130;49.212;9.056;2024-03-22T00:57:06;99798.34;;;7.05;68.61
86480;BME280;77130;49.212;9.056;2024-03-22T00:59:32;99791.59;;;7.01;66.56
86480;BME280;77130;49.212;9.056;2024-03-22T01:01:58;99790.59;;;7.15;65.64
86480;BME280;77130;49.212;9.056;2024-03-22T01:04:23;99787.41;;;7.10;67.71
86480;BME280;77130;49.212;9.056;2024-03-22T01:06:49;99785.63;;;6.86;69.02
86480;BME280;77130;49.212;9.056;2024-03-22T01:09:15;99781.44;;;6.71;70.16
86480;BME280;77130;49.212;9.056;2024-03-22T01:11:40;99771.19;;;6.66;70.47
86480;BME280;77130;49.212;9.056;2024-03-22T01:14:06;99782.09;;;6.62;70.79
86480;BME280;77130;49.212;9.056;2024-03-22T01:16:32;99781.47;;;6.58;71.53
86480;BME280;77130;49.212;9.056;2024-03-22T01:18:57;99770.28;;;6.55;69.99
86480;BME280;77130;49.212;9.056;2024-03-22T01:21:23;99770.34;;;6.66;68.56
86480;BME280;77130;49.212;9.056;2024-03-22T01:23:52;99766.94;;;6.77;66.91
86480;BME280;77130;49.212;9.056;2024-03-22T01:26:17;99762.47;;;6.77;67.32
86480;BME280;77130;49.212;9.056;2024-03-22T01:28:43;99760.84;;;6.87;67.65
86480;BME280;77130;49.212;9.056;2024-03-22T01:31:09;99758.34;;;6.97;66.59
86480;BME280;77130;49.212;9.056;2024-03-22T01:33:34;99757.50;;;6.96;65.44
86480;BME280;77130;49.212;9.056;2024-03-22T01:36:00;99744.00;;;6.88;65.10
86480;BME280;77130;49.212;9.056;2024-03-22T01:38:26;99751.53;;;6.82;66.57
86480;BME280;77130;49.212;9.056;2024-03-22T01:40:51;99754.66;;;6.76;67.17
86480;BME280;77130;49.212;9.056;2024-03-22T01:43:17;99754.53;;;6.77;67.20
86480;BME280;77130;49.212;9.056;2024-03-22T01:45:43;99747.75;;;6.73;65.49
86480;BME280;77130;49.212;9.056;2024-03-22T01:48:08;99748.59;;;6.74;66.21
86480;BME280;77130;49.212;9.056;2024-03-22T01:50:34;99755.69;;;6.73;65.60
86480;BME280;77130;49.212;9.056;2024-03-22T01:53:01;99755.66;;;6.62;65.08
86480;BME280;77130;49.212;9.056;2024-03-22T01:55:27;99743.19;;;6.51;66.17
86480;BME280;77130;49.212;9.056;2024-03-22T01:57:55;99746.19;;;6.47;65.93
86480;BME280;77130;49.212;9.056;2024-03-22T02:00:21;99734.97;;;6.43;66.53
86480;BME280;77130;49.212;9.056;2024-03-22T02:02:47;99738.34;;;6.45;66.48
86480;BME280;77130;49.212;9.056;2024-03-22T02:05:17;99734.03;;;6.44;66.54
86480;BME280;77130;49.212;9.056;2024-03-22T02:07:47;99727.88;;;6.44;66.19
86480;BME280;77130;49.212;9.056;2024-03-22T02:10:14;99728.09;;;6.40;66.01
86480;BME280;77130;49.212;9.056;2024-03-22T02:12:40;99716.06;;;6.36;65.27
86480;BME280;77130;49.212;9.056;2024-03-22T02:15:07;99722.28;;;6.35;65.54
86480;BME280;77130;49.212;9.056;2024-03-22T02:17:34;99715.53;;;6.31;65.29
86480;BME280;77130;49.212;9.056;2024-03-22T02:20:00;99724.28;;;6.08;67.02
86480;BME280;77130;49.212;9.056;2024-03-22T02:22:27;99723.84;;;6.01;67.26
86480;BME280;77130;49.212;9.056;2024-03-22T02:24:53;99716.00;;;6.12;68.61
86480;BME280;77130;49.212;9.056;2024-03-22T02:27:18;99722.03;;;6.15;67.07
86480;BME280;77130;49.212;9.056;2024-03-22T02:29:44;99717.78;;;6.12;67.18
86480;BME280;77130;49.212;9.056;2024-03-22T02:32:10;99723.31;;;6.09;68.03
86480;BME280;77130;49.212;9.056;2024-03-22T02:34:36;99709.56;;;6.17;67.37
86480;BME280;77130;49.212;9.056;2024-03-22T02:37:01;99713.28;;;6.14;66.94
86480;BME280;77130;49.212;9.056;2024-03-22T02:39:27;99712.63;;;6.10;67.73
86480;BME280;77130;49.212;9.056;2024-03-22T02:41:54;99714.72;;;6.18;67.46
86480;BME280;77130;49.212;9.056;2024-03-22T02:44:20;99712.31;;;6.15;66.58
86480;BME280;77130;49.212;9.056;2024-03-22T02:46:46;99705.22;;;6.16;66.36
86480;BME280;77130;49.212;9.056;2024-03-22T02:49:12;99697.59;;;6.11;65.80
86480;BME280;77130;49.212;9.056;2024-03-22T02:51:38;99698.34;;;6.13;67.19
86480;BME280;77130;49.212;9.056;2024-03-22T02:54:04;99706.06;;;6.16;66.80
86480;BME280;77130;49.212;9.056;2024-03-22T02:56:30;99698.13;;;6.16;66.51
86480;BME280;77130;49.212;9.056;2024-03-22T02:58:56;99706.63;;;6.08;67.53
86480;BME280;77130;49.212;9.056;2024-03-22T03:01:21;99701.75;;;6.15;67.27
86480;BME280;77130;49.212;9.056;2024-03-22T03:03:47;99703.47;;;6.27;66.61
86480;BME280;77130;49.212;9.056;2024-03-22T03:06:13;99700.75;;;6.29;65.96
86480;BME280;77130;49.212;9.056;2024-03-22T03:08:39;99700.53;;;6.32;66.11
86480;BME280;77130;49.212;9.056;2024-03-22T03:11:05;99695.34;;;6.30;66.33
86480;BME280;77130;49.212;9.056;2024-03-22T03:13:31;99684.47;;;6.22;66.15
86480;BME280;77130;49.212;9.056;2024-03-22T03:15:57;99679.50;;;6.18;66.57
86480;BME280;77130;49.212;9.056;2024-03-22T03:18:23;99678.78;;;6.16;66.64
86480;BME280;77130;49.212;9.056;2024-03-22T03:20:49;99674.22;;;6.18;66.36
86480;BME280;77130;49.212;9.056;2024-03-22T03:23:15;99677.94;;;6.15;65.81
86480;BME280;77130;49.212;9.056;2024-03-22T03:25:40;99679.66;;;6.03;66.64
86480;BME280;77130;49.212;9.056;2024-03-22T03:28:06;99677.41;;;6.10;66.57
86480;BME280;77130;49.212;9.056;2024-03-22T03:30:34;99681.88;;;6.09;65.88
86480;BME280;77130;49.212;9.056;2024-03-22T03:33:00;99684.63;;;6.08;66.91
86480;BME280;77130;49.212;9.056;2024-03-22T03:35:26;99686.19;;;6.10;67.19
86480;BME280;77130;49.212;9.056;2024-03-22T03:37:52;99683.13;;;6.17;67.42
86480;BME280;77130;49.212;9.056;2024-03-22T03:40:18;99681.00;;;6.22;66.78
86480;BME280;77130;49.212;9.056;2024-03-22T03:42:44;99681.59;;;6.25;66.38
86480;BME280;77130;49.212;9.056;2024-03-22T03:45:10;99680.44;;;6.29;66.61
86480;BME280;77130;49.212;9.056;2024-03-22T03:47:35;99679.25;;;6.33;66.38
86480;BME280;77130;49.212;9.056;2024-03-22T03:50:01;99672.56;;;6.40;66.76
86480;BME280;77130;49.212;9.056;2024-03-22T03:52:27;99676.97;;;6.53;66.77
86480;BME280;77130;49.212;9.056;2024-03-22T03:54:53;99671.94;;;6.61;66.46
86480;BME280;77130;49.212;9.056;2024-03-22T03:57:18;99667.66;;;6.71;68.29
86480;BME280;77130;49.212;9.056;2024-03-22T03:59:44;99672.56;;;6.64;67.26
86480;BME280;77130;49.212;9.056;2024-03-22T04:02:10;99677.00;;;6.64;68.44
86480;BME280;77130;49.212;9.056;2024-03-22T04:04:35;99671.94;;;6.61;68.85
86480;BME280;77130;49.212;9.056;2024-03-22T04:07:01;99678.00;;;6.74;67.47
86480;BME280;77130;49.212;9.056;2024-03-22T04:09:27;99674.97;;;6.91;66.96
86480;BME280;77130;49.212;9.056;2024-03-22T04:11:52;99677.13;;;6.97;66.95
86480;BME280;77130;49.212;9.056;2024-03-22T04:14:18;99674.13;;;7.02;66.91
86480;BME280;77130;49.212;9.056;2024-03-22T04:16:44;99679.94;;;7.07;66.50
86480;BME280;77130;49.212;9.056;2024-03-22T04:19:09;99677.91;;;7.11;67.41
86480;BME280;77130;49.212;9.056;2024-03-22T04:21:35;99681.38;;;7.11;67.17
86480;BME280;77130;49.212;9.056;2024-03-22T04:24:00;99682.72;;;7.17;66.67
86480;BME280;77130;49.212;9.056;2024-03-22T04:26:26;99681.31;;;7.24;66.15
86480;BME280;77130;49.212;9.056;2024-03-22T04:28:52;99683.63;;;7.29;66.12
86480;BME280;77130;49.212;9.056;2024-03-22T04:31:17;99685.06;;;7.33;66.23
86480;BME280;77130;49.212;9.056;2024-03-22T04:33:43;99684.09;;;7.34;65.84
86480;BME280;77130;49.212;9.056;2024-03-22T04:36:09;99679.63;;;7.34;65.84
86480;BME280;77130;49.212;9.056;2024-03-22T04:38:37;99680.84;;;7.41;65.97
86480;BME280;77130;49.212;9.056;2024-03-22T04:41:03;99679.28;;;7.39;65.82
86480;BME280;77130;49.212;9.056;2024-03-22T04:43:29;99682.78;;;7.39;66.50
86480;BME280;77130;49.212;9.056;2024-03-22T04:45:54;99683.50;;;7.30;66.57
86480;BME280;77130;49.212;9.056;2024-03-22T04:48:21;99674.59;;;7.31;66.42
86480;BME280;77130;49.212;9.056;2024-03-22T04:50:52;99669.16;;;7.33;65.53
86480;BME280;77130;49.212;9.056;2024-03-22T04:53:20;99673.88;;;7.29;66.80
86480;BME280;77130;49.212;9.056;2024-03-22T04:55:50;99668.31;;;7.32;67.13
86480;BME280;77130;49.212;9.056;2024-03-22T04:58:20;99669.16;;;7.33;67.07
86480;BME280;77130;49.212;9.056;2024-03-22T05:00:48;99668.78;;;7.26;68.49
86480;BME280;77130;49.212;9.056;2024-03-22T05:03:14;99664.78;;;7.20;67.93
86480;BME280;77130;49.212;9.056;2024-03-22T05:05:41;99667.94;;;7.25;66.88
86480;BME280;77130;49.212;9.056;2024-03-22T05:08:07;99653.63;;;7.39;66.20
86480;BME280;77130;49.212;9.056;2024-03-22T05:10:35;99654.22;;;7.43;66.43
86480;BME280;77130;49.212;9.056;2024-03-22T05:13:00;99657.00;;;7.41;67.15
86480;BME280;77130;49.212;9.056;2024-03-22T05:15:26;99649.44;;;7.37;67.02
86480;BME280;77130;49.212;9.056;2024-03-22T05:17:53;99641.34;;;7.38;66.89
86480;BME280;77130;49.212;9.056;2024-03-22T05:20:19;99641.47;;;7.37;66.69
86480;BME280;77130;49.212;9.056;2024-03-22T05:22:45;99645.94;;;7.36;67.35
86480;BME280;77130;49.212;9.056;2024-03-22T05:25:11;99645.06;;;7.36;66.78
86480;BME280;77130;49.212;9.056;2024-03-22T05:27:38;99645.44;;;7.42;66.57
86480;BME280;77130;49.212;9.056;2024-03-22T05:30:04;99642.56;;;7.45;66.12
86480;BME280;77130;49.212;9.056;2024-03-22T05:32:30;99637.03;;;7.48;65.86
86480;BME280;77130;49.212;9.056;2024-03-22T05:34:55;99632.09;;;7.44;66.47
86480;BME280;77130;49.212;9.056;2024-03-22T05:37:21;99633.16;;;7.41;66.23
86480;BME280;77130;49.212;9.056;2024-03-22T05:39:47;99628.97;;;7.39;67.08
86480;BME280;77130;49.212;9.056;2024-03-22T05:42:13;99630.63;;;7.40;66.89
86480;BME280;77130;49.212;9.056;2024-03-22T05:44:38;99628.25;;;7.37;65.66
86480;BME280;77130;49.212;9.056;2024-03-22T05:47:04;99628.84;;;7.40;67.66
86480;BME280;77130;49.212;9.056;2024-03-22T05:49:30;99633.28;;;7.40;68.31
86480;BME280;77130;49.212;9.056;2024-03-22T05:51:55;99625.69;;;7.35;67.32
86480;BME280;77130;49.212;9.056;2024-03-22T05:54:21;99623.28;;;7.32;68.03
86480;BME280;77130;49.212;9.056;2024-03-22T05:56:46;99628.13;;;7.38;67.09
86480;BME280;77130;49.212;9.056;2024-03-22T05:59:12;99631.22;;;7.43;66.82
86480;BME280;77130;49.212;9.056;2024-03-22T06:01:38;99631.25;;;7.55;66.31
86480;BME280;77130;49.212;9.056;2024-03-22T06:04:04;99632.47;;;7.62;67.37
86480;BME280;77130;49.212;9.056;2024-03-22T06:06:39;99622.34;;;7.67;66.65
86480;BME280;77130;49.212;9.056;2024-03-22T06:09:05;99627.63;;;7.78;66.80
86480;BME280;77130;49.212;9.056;2024-03-22T06:11:36;99620.75;;;7.98;66.20
86480;BME280;77130;49.212;9.056;2024-03-22T06:14:02;99627.47;;;8.13;66.39
86480;BME280;77130;49.212;9.056;2024-03-22T06:16:28;99624.66;;;8.26;66.05
86480;BME280;77130;49.212;9.056;2024-03-22T06:18:53;99622.44;;;8.42;65.86
86480;BME280;77130;49.212;9.056;2024-03-22T06:21:19;99617.97;;;8.54;64.74
86480;BME280;77130;49.212;9.056;2024-03-22T06:23:50;99621.72;;;8.72;64.35
86480;BME280;77130;49.212;9.056;2024-03-22T06:26:16;99617.78;;;8.87;63.77
86480;BME280;77130;49.212;9.056;2024-03-22T06:28:42;99616.63;;;9.01;66.08
86480;BME280;77130;49.212;9.056;2024-03-22T06:31:08;99613.28;;;8.99;67.26
86480;BME280;77130;49.212;9.056;2024-03-22T06:33:33;99615.94;;;8.99;67.12
86480;BME280;77130;49.212;9.056;2024-03-22T06:35:59;99610.72;;;9.18;67.47
86480;BME280;77130;49.212;9.056;2024-03-22T06:38:25;99616.22;;;9.27;67.79
86480;BME280;77130;49.212;9.056;2024-03-22T06:40:51;99608.81;;;9.21;67.47
86480;BME280;77130;49.212;9.056;2024-03-22T06:43:17;99608.66;;;9.22;67.72
86480;BME280;77130;49.212;9.056;2024-03-22T06:45:45;99604.09;;;9.34;67.83
86480;BME280;77130;49.212;9.056;2024-03-22T06:48:11;99603.34;;;9.53;67.30
86480;BME280;77130;49.212;9.056;2024-03-22T06:50:36;99598.56;;;9.87;66.40
86480;BME280;77130;49.212;9.056;2024-03-22T06:53:02;99594.84;;;10.09;65.34
86480;BME280;77130;49.212;9.056;2024-03-22T06:55:28;99597.00;;;10.24;64.66
86480;BME280;77130;49.212;9.056;2024-03-22T06:57:53;99595.91;;;10.46;64.07
86480;BME280;77130;49.212;9.056;2024-03-22T07:00:20;99596.88;;;10.84;64.77
86480;BME280;77130;49.212;9.056;2024-03-22T07:02:46;99588.91;;;11.31;64.19
86480;BME280;77130;49.212;9.056;2024-03-22T07:05:12;99589.91;;;11.67;62.67
86480;BME280;77130;49.212;9.056;2024-03-22T07:07:38;99582.38;;;11.90;61.76
86480;BME280;77130;49.212;9.056;2024-03-22T07:10:04;99582.09;;;12.11;60.06
86480;BME280;77130;49.212;9.056;2024-03-22T07:12:33;99579.31;;;12.30;59.93
86480;BME280;77130;49.212;9.056;2024-03-22T07:15:00;99583.59;;;12.59;58.45
86480;BME280;77130;49.212;9.056;2024-03-22T07:17:27;99587.00;;;12.69;61.34
86480;BME280;77130;49.212;9.056;2024-03-22T07:19:53;99578.47;;;13.09;59.05
86480;BME280;77130;49.212;9.056;2024-03-22T07:22:20;99588.41;;;13.43;58.76
86480;BME280;77130;49.212;9.056;2024-03-22T07:24:46;99585.38;;;13.80;57.03
86480;BME280;77130;49.212;9.056;2024-03-22T07:27:13;99577.09;;;13.99;54.72
86480;BME280;77130;49.212;9.056;2024-03-22T07:29:41;99579.19;;;14.22;56.98
86480;BME280;77130;49.212;9.056;2024-03-22T07:32:07;99580.44;;;14.68;55.93
86480;BME280;77130;49.212;9.056;2024-03-22T07:34:33;99571.72;;;15.07;53.96
86480;BME280;77130;49.212;9.056;2024-03-22T07:36:58;99575.00;;;15.41;52.22
86480;BME280;77130;49.212;9.056;2024-03-22T07:39:25;99565.03;;;15.74;51.34
86480;BME280;77130;49.212;9.056;2024-03-22T07:41:50;99563.84;;;16.08;51.11
86480;BME280;77130;49.212;9.056;2024-03-22T07:44:17;99562.97;;;16.38;50.03
86480;BME280;77130;49.212;9.056;2024-03-22T07:46:46;99559.69;;;16.51;49.32
86480;BME280;77130;49.212;9.056;2024-03-22T07:49:12;99558.81;;;16.36;49.51
86480;BME280;77130;49.212;9.056;2024-03-22T07:51:38;99557.91;;;16.21;49.40
86480;BME280;77130;49.212;9.056;2024-03-22T07:54:04;99565.59;;;15.37;51.07
86480;BME280;77130;49.212;9.056;2024-03-22T07:56:30;99563.75;;;15.38;51.27
86480;BME280;77130;49.212;9.056;2024-03-22T07:58:55;99564.28;;;15.41;50.28
86480;BME280;77130;49.212;9.056;2024-03-22T08:01:23;99558.06;;;15.33;51.71
86480;BME280;77130;49.212;9.056;2024-03-22T08:03:49;99548.41;;;15.71;50.59
86480;BME280;77130;49.212;9.056;2024-03-22T08:06:15;99554.56;;;16.42;50.67
86480;BME280;77130;49.212;9.056;2024-03-22T08:08:40;99544.75;;;17.09;49.26
86480;BME280;77130;49.212;9.056;2024-03-22T08:11:06;99536.06;;;17.66;46.89
86480;BME280;77130;49.212;9.056;2024-03-22T08:13:32;99541.34;;;18.25;45.69
86480;BME280;77130;49.212;9.056;2024-03-22T08:15:57;99531.59;;;18.88;44.46
86480;BME280;77130;49.212;9.056;2024-03-22T08:18:23;99530.75;;;19.51;42.70
86480;BME280;77130;49.212;9.056;2024-03-22T08:20:49;99531.25;;;20.02;43.28
86480;BME280;77130;49.212;9.056;2024-03-22T08:23:14;99528.25;;;20.58;42.72
86480;BME280;77130;49.212;9.056;2024-03-22T08:25:40;99528.88;;;21.13;39.77
86480;BME280;77130;49.212;9.056;2024-03-22T08:28:07;99525.69;;;21.56;39.51
86480;BME280;77130;49.212;9.056;2024-03-22T08:30:33;99524.63;;;21.70;38.25
86480;BME280;77130;49.212;9.056;2024-03-22T08:32:58;99516.53;;;22.02;37.79
86480;BME280;77130;49.212;9.056;2024-03-22T08:35:24;99521.06;;;22.21;36.60
86480;BME280;77130;49.212;9.056;2024-03-22T08:37:50;99513.25;;;22.31;36.90
86480;BME280;77130;49.212;9.056;2024-03-22T08:40:15;99509.09;;;22.29;37.86
86480;BME280;77130;49.212;9.056;2024-03-22T08:42:42;99514.91;;;21.94;36.73
86480;BME280;77130;49.212;9.056;2024-03-22T08:45:08;99506.66;;;21.69;38.07
86480;BME280;77130;49.212;9.056;2024-03-22T08:47:34;99501.97;;;21.45;37.21
86480;BME280;77130;49.212;9.056;2024-03-22T08:50:00;99508.66;;;21.22;38.26
86480;BME280;77130;49.212;9.056;2024-03-22T08:52:26;99505.78;;;21.04;37.99
86480;BME280;77130;49.212;9.056;2024-03-22T08:54:54;99496.59;;;20.98;39.63
86480;BME280;77130;49.212;9.056;2024-03-22T08:57:20;99501.81;;;21.06;38.24
86480;BME280;77130;49.212;9.056;2024-03-22T08:59:46;99503.00;;;21.24;38.68
86480;BME280;77130;49.212;9.056;2024-03-22T09:02:11;99499.69;;;21.42;38.38
86480;BME280;77130;49.212;9.056;2024-03-22T09:04:40;99496.59;;;21.05;36.70
86480;BME280;77130;49.212;9.056;2024-03-22T09:07:07;99483.72;;;20.94;37.04
86480;BME280;77130;49.212;9.056;2024-03-22T09:09:33;99492.06;;;20.79;38.82
86480;BME280;77130;49.212;9.056;2024-03-22T09:11:58;99479.13;;;20.61;38.00
86480;BME280;77130;49.212;9.056;2024-03-22T09:14:25;99476.66;;;20.73;37.47
86480;BME280;77130;49.212;9.056;2024-03-22T09:16:51;99476.81;;;20.98;38.51
86480;BME280;77130;49.212;9.056;2024-03-22T09:19:17;99481.38;;;21.30;38.87
86480;BME280;77130;49.212;9.056;2024-03-22T09:21:42;99477.50;;;21.64;37.23
86480;BME280;77130;49.212;9.056;2024-03-22T09:24:08;99472.13;;;21.58;37.04
86480;BME280;77130;49.212;9.056;2024-03-22T09:26:35;99469.44;;;21.51;38.21
86480;BME280;77130;49.212;9.056;2024-03-22T09:29:00;99472.81;;;21.27;37.68
86480;BME280;77130;49.212;9.056;2024-03-22T09:31:26;99463.50;;;21.03;37.52
86480;BME280;77130;49.212;9.056;2024-03-22T09:33:52;99466.81;;;20.98;38.33
86480;BME280;77130;49.212;9.056;2024-03-22T09:36:18;99461.63;;;20.83;37.72
86480;BME280;77130;49.212;9.056;2024-03-22T09:38:44;99448.97;;;20.71;39.59
86480;BME280;77130;49.212;9.056;2024-03-22T09:41:09;99452.28;;;20.66;37.77
86480;BME280;77130;49.212;9.056;2024-03-22T09:43:38;99445.84;;;20.61;38.65
86480;BME280;77130;49.212;9.056;2024-03-22T09:46:05;99445.44;;;20.44;38.79
86480;BME280;77130;49.212;9.056;2024-03-22T09:48:31;99431.00;;;20.04;39.24
86480;BME280;77130;49.212;9.056;2024-03-22T09:50:58;99436.63;;;20.02;40.39
86480;BME280;77130;49.212;9.056;2024-03-22T09:53:27;99431.88;;;20.17;40.76
86480;BME280;77130;49.212;9.056;2024-03-22T09:55:59;99426.88;;;20.27;40.92
86480;BME280;77130;49.212;9.056;2024-03-22T09:58:27;99419.19;;;20.18;39.57
86480;BME280;77130;49.212;9.056;2024-03-22T10:00:53;99421.03;;;20.04;39.80
86480;BME280;77130;49.212;9.056;2024-03-22T10:03:21;99416.47;;;20.11;40.20
86480;BME280;77130;49.212;9.056;2024-03-22T10:05:46;99415.22;;;20.27;41.55
86480;BME280;77130;49.212;9.056;2024-03-22T10:08:13;99414.41;;;20.40;40.25
86480;BME280;77130;49.212;9.056;2024-03-22T10:10:38;99405.47;;;20.52;40.42
86480;BME280;77130;49.212;9.056;2024-03-22T10:13:04;99406.91;;;20.68;40.46
86480;BME280;77130;49.212;9.056;2024-03-22T10:15:32;99405.03;;;20.62;40.24
86480;BME280;77130;49.212;9.056;2024-03-22T10:17:58;99400.38;;;21.09;40.06
86480;BME280;77130;49.212;9.056;2024-03-22T10:20:24;99394.59;;;21.50;39.20
86480;BME280;77130;49.212;9.056;2024-03-22T10:22:58;99395.66;;;21.87;37.61
86480;BME280;77130;49.212;9.056;2024-03-22T10:25:25;99395.06;;;22.17;37.81
86480;BME280;77130;49.212;9.056;2024-03-22T10:27:53;99383.25;;;22.55;37.00
86480;BME280;77130;49.212;9.056;2024-03-22T10:30:19;99383.06;;;23.48;37.44
86480;BME280;77130;49.212;9.056;2024-03-22T10:32:46;99377.25;;;24.04;35.17
86480;BME280;77130;49.212;9.056;2024-03-22T10:35:13;99366.00;;;24.43;33.63
86480;BME280;77130;49.212;9.056;2024-03-22T10:37:40;99366.09;;;24.36;34.13
86480;BME280;77130;49.212;9.056;2024-03-22T10:40:07;99358.00;;;24.29;33.54
86480;BME280;77130;49.212;9.056;2024-03-22T10:45:04;99348.44;;;24.27;32.61
86480;BME280;77130;49.212;9.056;2024-03-22T10:47:32;99348.19;;;23.45;33.48
86480;BME280;77130;49.212;9.056;2024-03-22T10:50:11;99349.84;;;22.97;32.61
86480;BME280;77130;49.212;9.056;2024-03-22T10:52:59;99340.91;;;22.72;33.57
86480;BME280;77130;49.212;9.056;2024-03-22T10:55:34;99336.84;;;22.38;33.36
86480;BME280;77130;49.212;9.056;2024-03-22T10:58:00;99345.72;;;22.02;33.90
86480;BME280;77130;49.212;9.056;2024-03-22T11:00:32;99336.88;;;21.81;35.83
86480;BME280;77130;49.212;9.056;2024-03-22T11:02:59;99336.50;;;22.03;36.88
86480;BME280;77130;49.212;9.056;2024-03-22T11:05:26;99328.91;;;22.18;35.12
86480;BME280;77130;49.212;9.056;2024-03-22T11:08:02;99325.78;;;22.14;34.65
86480;BME280;77130;49.212;9.056;2024-03-22T11:10:33;99322.50;;;22.06;35.52
86480;BME280;77130;49.212;9.056;2024-03-22T11:13:02;99319.53;;;22.14;34.99
86480;BME280;77130;49.212;9.056;2024-03-22T11:15:29;99318.00;;;22.25;33.17
86480;BME280;77130;49.212;9.056;2024-03-22T11:17:56;99314.94;;;22.39;35.88
86480;BME280;77130;49.212;9.056;2024-03-22T11:20:21;99309.38;;;22.71;35.50
86480;BME280;77130;49.212;9.056;2024-03-22T11:22:47;99301.84;;;22.91;35.17
86480;BME280;77130;49.212;9.056;2024-03-22T11:25:13;99294.47;;;22.98;33.55
86480;BME280;77130;49.212;9.056;2024-03-22T11:27:39;99293.28;;;22.94;34.58
86480;BME280;77130;49.212;9.056;2024-03-22T11:30:05;99284.72;;;22.91;34.18
86480;BME280;77130;49.212;9.056;2024-03-22T11:32:33;99286.88;;;22.45;34.13
86480;BME280;77130;49.212;9.056;2024-03-22T11:35:09;99267.41;;;22.12;34.34
86480;BME280;77130;49.212;9.056;2024-03-22T11:37:38;99273.56;;;22.01;35.05
86480;BME280;77130;49.212;9.056;2024-03-22T11:40:04;99268.66;;;21.84;35.31
86480;BME280;77130;49.212;9.056;2024-03-22T11:42:34;99267.22;;;21.82;35.07
86480;BME280;77130;49.212;9.056;2024-03-22T11:45:02;99261.63;;;21.77;36.40
86480;BME280;77130;49.212;9.056;2024-03-22T11:47:28;99253.50;;;21.77;36.36
86480;BME280;77130;49.212;9.056;2024-03-22T11:49:54;99252.13;;;21.68;36.67
86480;BME280;77130;49.212;9.056;2024-03-22T11:52:27;99245.69;;;21.62;35.49
86480;BME280;77130;49.212;9.056;2024-03-22T11:54:53;99248.25;;;21.57;35.03
86480;BME280;77130;49.212;9.056;2024-03-22T11:57:22;99242.94;;;21.69;35.73
86480;BME280;77130;49.212;9.056;2024-03-22T11:59:48;99237.63;;;21.55;35.72
86480;BME280;77130;49.212;9.056;2024-03-22T12:02:14;99233.13;;;21.43;35.42
86480;BME280;77130;49.212;9.056;2024-03-22T12:04:42;99230.63;;;21.48;35.29
86480;BME280;77130;49.212;9.056;2024-03-22T12:07:12;99224.88;;;21.62;36.18
86480;BME280;77130;49.212;9.056;2024-03-22T12:09:40;99220.81;;;21.72;36.65
86480;BME280;77130;49.212;9.056;2024-03-22T12:12:08;99208.69;;;21.74;36.63
86480;BME280;77130;49.212;9.056;2024-03-22T12:14:35;99209.94;;;21.78;36.71
86480;BME280;77130;49.212;9.056;2024-03-22T12:17:04;99209.25;;;21.83;37.34
86480;BME280;77130;49.212;9.056;2024-03-22T12:19:30;99208.69;;;21.74;36.18
86480;BME280;77130;49.212;9.056;2024-03-22T12:21:56;99201.91;;;21.65;36.46
86480;BME280;77130;49.212;9.056;2024-03-22T12:24:23;99196.72;;;21.63;36.95
86480;BME280;77130;49.212;9.056;2024-03-22T12:26:50;99192.94;;;21.64;36.51
86480;BME280;77130;49.212;9.056;2024-03-22T12:29:17;99185.97;;;21.75;37.34
86480;BME280;77130;49.212;9.056;2024-03-22T12:31:44;99185.31;;;21.80;37.46
86480;BME280;77130;49.212;9.056;2024-03-22T12:34:10;99175.06;;;21.82;37.30
86480;BME280;77130;49.212;9.056;2024-03-22T12:36:36;99177.41;;;21.78;36.42
86480;BME280;77130;49.212;9.056;2024-03-22T12:39:02;99179.25;;;22.03;35.54
86480;BME280;77130;49.212;9.056;2024-03-22T12:41:31;99177.25;;;21.91;37.14
86480;BME280;77130;49.212;9.056;2024-03-22T12:43:57;99160.28;;;22.21;36.63
86480;BME280;77130;49.212;9.056;2024-03-22T12:46:23;99168.72;;;22.31;33.29
86480;BME280;77130;49.212;9.056;2024-03-22T12:48:50;99155.75;;;22.15;33.57
86480;BME280;77130;49.212;9.056;2024-03-22T12:51:16;99162.63;;;22.17;33.75
86480;BME280;77130;49.212;9.056;2024-03-22T12:53:42;99154.41;;;22.24;33.37
86480;BME280;77130;49.212;9.056;2024-03-22T12:56:07;99162.41;;;22.19;34.18
86480;BME280;77130;49.212;9.056;2024-03-22T12:58:33;99150.78;;;22.12;33.88
86480;BME280;77130;49.212;9.056;2024-03-22T13:01:00;99153.28;;;22.13;33.01
86480;BME280;77130;49.212;9.056;2024-03-22T13:03:28;99151.06;;;22.04;32.42